createdAt,value
2017-08-19T00:00:27.703Z,17.83
2017-08-19T00:05:32.493Z,17.80
2017-08-19T00:10:39.295Z,17.77
2017-08-19T00:15:45.339Z,17.70
2017-08-19T00:20:47.711Z,17.59
2017-08-19T00:25:52.394Z,17.59
2017-08-19T00:30:57.239Z,17.54
2017-08-19T00:36:00.403Z,17.50
2017-08-19T00:41:08.358Z,17.56
2017-08-19T00:46:12.463Z,17.47
2017-08-19T00:51:17.005Z,17.46
2017-08-19T00:56:19.278Z,17.39
2017-08-19T01:01:21.537Z,17.42
2017-08-19T01:06:24.236Z,17.40
2017-08-19T01:11:26.590Z,17.40
2017-08-19T01:16:29.144Z,17.36
2017-08-19T01:21:31.771Z,17.43
2017-08-19T01:26:52.100Z,17.33
2017-08-19T01:31:54.193Z,17.27
2017-08-19T01:36:56.154Z,17.26
2017-08-19T01:41:58.087Z,17.24
2017-08-19T01:47:00.615Z,17.17
2017-08-19T01:52:04.271Z,17.21
2017-08-19T01:57:06.799Z,17.15
2017-08-19T02:02:09.114Z,17.15
2017-08-19T02:07:11.850Z,17.05
2017-08-19T02:12:13.775Z,16.97
2017-08-19T02:17:15.781Z,16.90
2017-08-19T02:22:17.715Z,16.99
2017-08-19T02:27:19.651Z,16.93
2017-08-19T02:32:21.713Z,16.88
2017-08-19T02:37:23.671Z,16.91
2017-08-19T02:42:25.646Z,16.94
2017-08-19T02:47:27.621Z,16.98
2017-08-19T02:52:29.672Z,16.97
2017-08-19T02:57:31.620Z,16.90
2017-08-19T03:02:34.813Z,16.86
2017-08-19T03:07:38.493Z,16.85
2017-08-19T03:12:41.041Z,16.79
2017-08-19T03:17:44.182Z,16.78
2017-08-19T03:22:53.604Z,16.81
2017-08-19T03:27:57.059Z,16.79
2017-08-19T03:32:58.996Z,16.80
2017-08-19T03:38:01.004Z,16.72
2017-08-19T03:43:02.945Z,16.67
2017-08-19T03:48:05.987Z,16.66
2017-08-19T03:53:08.305Z,16.62
2017-08-19T03:58:10.280Z,16.61
2017-08-19T04:03:12.564Z,16.61
2017-08-19T04:08:14.634Z,16.67
2017-08-19T04:13:16.658Z,16.72
2017-08-19T04:18:19.000Z,16.70
2017-08-19T04:23:20.971Z,16.74
2017-08-19T04:28:22.972Z,16.70
2017-08-19T04:33:24.965Z,16.74
2017-08-19T04:38:26.924Z,16.80
2017-08-19T04:43:28.879Z,16.81
2017-08-19T04:48:30.823Z,16.80
2017-08-19T04:53:33.056Z,17.03
2017-08-19T04:58:36.287Z,17.03
2017-08-19T05:03:38.247Z,17.06
2017-08-19T05:08:40.566Z,17.21
2017-08-19T05:13:46.909Z,17.17
2017-08-19T05:18:53.086Z,17.25
2017-08-19T05:23:55.184Z,17.37
2017-08-19T05:28:57.205Z,17.41
2017-08-19T05:33:59.563Z,17.58
2017-08-19T05:39:01.564Z,17.82
2017-08-19T05:44:03.547Z,18.11
2017-08-19T05:49:05.468Z,18.13
2017-08-19T05:54:07.424Z,18.31
2017-08-19T05:59:10.283Z,18.32
2017-08-19T06:04:12.343Z,18.44
2017-08-19T06:09:14.324Z,18.72
2017-08-19T06:14:16.251Z,18.74
2017-08-19T06:19:18.251Z,19.02
2017-08-19T06:24:20.211Z,19.20
2017-08-19T06:29:22.358Z,19.55
2017-08-19T06:34:24.307Z,19.32
2017-08-19T06:39:26.257Z,19.19
2017-08-19T06:44:28.197Z,19.23
2017-08-19T06:49:30.265Z,19.13
2017-08-19T06:54:32.220Z,19.25
2017-08-19T06:59:39.944Z,19.15
2017-08-19T07:04:42.241Z,19.40
2017-08-19T07:09:44.653Z,19.50
2017-08-19T07:14:46.656Z,19.73
2017-08-19T07:19:48.625Z,19.54
2017-08-19T07:24:50.624Z,19.86
2017-08-19T07:29:52.592Z,20.04
2017-08-19T07:34:54.547Z,20.24
2017-08-19T07:39:56.512Z,20.13
2017-08-19T07:44:58.469Z,20.50
2017-08-19T07:50:00.566Z,20.90
2017-08-19T07:55:02.527Z,20.90
2017-08-19T08:00:04.472Z,21.04
2017-08-19T08:05:06.571Z,21.28
2017-08-19T08:10:08.582Z,21.70
2017-08-19T08:15:10.560Z,21.74
2017-08-19T08:20:12.622Z,21.46
2017-08-19T08:25:14.892Z,21.49
2017-08-19T08:30:16.844Z,21.67
2017-08-19T08:35:19.160Z,22.10
2017-08-19T08:40:21.356Z,22.42
2017-08-19T08:45:23.589Z,22.45
2017-08-19T08:50:25.888Z,22.49
2017-08-19T08:55:28.107Z,22.12
2017-08-19T09:00:37.011Z,21.96
2017-08-19T09:05:39.004Z,22.61
2017-08-19T09:10:40.963Z,22.61
2017-08-19T09:15:42.935Z,23.14
2017-08-19T09:20:44.873Z,23.09
2017-08-19T09:25:46.815Z,22.57
2017-08-19T09:30:48.775Z,22.59
2017-08-19T09:35:50.733Z,22.96
2017-08-19T09:40:52.797Z,23.27
2017-08-19T09:45:58.458Z,23.39
2017-08-19T09:51:01.374Z,23.09
2017-08-19T09:56:03.552Z,23.06
2017-08-19T10:01:05.612Z,23.21
2017-08-19T10:06:11.431Z,23.60
2017-08-19T10:11:22.428Z,23.46
2017-08-19T10:16:24.611Z,23.75
2017-08-19T10:21:26.594Z,23.77
2017-08-19T10:26:28.589Z,23.42
2017-08-19T10:31:33.402Z,23.47
2017-08-19T10:36:36.213Z,23.82
2017-08-19T10:41:38.408Z,23.82
2017-08-19T10:46:40.541Z,23.07
2017-08-19T10:51:42.615Z,23.17
2017-08-19T10:56:45.739Z,23.56
2017-08-19T11:01:49.048Z,23.71
2017-08-19T11:07:06.820Z,23.80
2017-08-19T11:12:10.629Z,23.79
2017-08-19T11:17:16.672Z,23.84
2017-08-19T11:22:19.624Z,24.28
2017-08-19T11:27:22.748Z,23.90
2017-08-19T11:32:25.889Z,23.57
2017-08-19T11:37:28.842Z,23.56
2017-08-19T11:42:30.944Z,23.72
2017-08-19T11:47:33.424Z,23.83
2017-08-19T11:52:36.610Z,24.01
2017-08-19T11:57:38.645Z,24.35
2017-08-19T12:02:40.773Z,24.69
2017-08-19T12:07:42.850Z,24.72
2017-08-19T12:12:44.839Z,25.23
2017-08-19T12:17:46.932Z,25.49
2017-08-19T12:22:48.916Z,25.75
2017-08-19T12:27:55.377Z,25.96
2017-08-19T12:33:01.984Z,25.84
2017-08-19T12:38:04.225Z,25.42
2017-08-19T12:43:06.452Z,25.29
2017-08-19T12:48:08.519Z,25.00
2017-08-19T12:53:10.496Z,24.35
2017-08-19T12:58:12.446Z,22.98
2017-08-19T13:03:15.676Z,22.72
2017-08-19T13:08:18.945Z,23.24
2017-08-19T13:13:22.228Z,23.97
2017-08-19T13:18:25.419Z,24.10
2017-08-19T13:23:28.611Z,24.26
2017-08-19T13:28:31.883Z,24.62
2017-08-19T13:33:35.091Z,24.74
2017-08-19T13:38:37.761Z,25.32
2017-08-19T13:43:40.916Z,25.60
2017-08-19T13:48:44.292Z,25.53
2017-08-19T13:53:47.404Z,25.19
2017-08-19T13:58:50.562Z,25.06
2017-08-19T14:03:53.891Z,24.78
2017-08-19T14:08:58.019Z,24.69
2017-08-19T14:14:00.451Z,24.63
2017-08-19T14:19:03.691Z,24.78
2017-08-19T14:24:06.801Z,24.73
2017-08-19T14:29:10.015Z,25.62
2017-08-19T14:34:13.172Z,26.16
2017-08-19T14:39:15.198Z,26.14
2017-08-19T14:44:17.822Z,25.75
2017-08-19T14:49:21.047Z,25.59
2017-08-19T14:54:24.168Z,25.64
2017-08-19T14:59:27.387Z,25.65
2017-08-19T15:04:30.538Z,25.50
2017-08-19T15:09:33.804Z,25.96
2017-08-19T15:14:37.022Z,25.92
2017-08-19T15:19:40.219Z,25.90
2017-08-19T15:24:43.945Z,25.69
2017-08-19T15:29:47.073Z,25.30
2017-08-19T15:34:49.045Z,24.96
2017-08-19T15:39:51.466Z,24.71
2017-08-19T15:44:54.506Z,24.50
2017-08-19T15:49:57.648Z,24.09
2017-08-19T15:55:00.914Z,23.67
2017-08-19T16:00:04.215Z,23.57
2017-08-19T16:05:07.359Z,23.48
2017-08-19T16:10:10.571Z,23.57
2017-08-19T16:15:13.825Z,23.47
2017-08-19T16:20:16.979Z,23.57
2017-08-19T16:25:20.159Z,23.52
2017-08-19T16:30:23.190Z,23.17
2017-08-19T16:35:26.182Z,22.80
2017-08-19T16:40:28.638Z,22.79
2017-08-19T16:45:31.033Z,22.83
2017-08-19T16:50:33.943Z,22.98
2017-08-19T16:55:35.926Z,23.30
2017-08-19T17:00:38.713Z,23.32
2017-08-19T17:05:41.843Z,23.36
2017-08-19T17:10:44.962Z,23.09
2017-08-19T17:15:48.117Z,22.70
2017-08-19T17:20:51.407Z,22.41
2017-08-19T17:25:54.611Z,22.27
2017-08-19T17:30:57.948Z,22.19
2017-08-19T17:36:01.228Z,22.31
2017-08-19T17:41:04.551Z,22.25
2017-08-19T17:46:07.690Z,22.02
2017-08-19T17:51:10.810Z,22.11
2017-08-19T17:56:14.077Z,22.03
2017-08-19T18:01:17.309Z,22.03
2017-08-19T18:06:20.597Z,21.78
2017-08-19T18:11:23.838Z,21.67
2017-08-19T18:16:26.991Z,21.71
2017-08-19T18:21:30.319Z,21.83
2017-08-19T18:26:33.681Z,21.86
2017-08-19T18:31:36.885Z,21.64
2017-08-19T18:36:40.105Z,21.20
2017-08-19T18:41:43.319Z,20.93
2017-08-19T18:46:46.502Z,20.93
2017-08-19T18:51:48.464Z,20.94
2017-08-19T18:56:50.590Z,20.82
2017-08-19T19:01:52.738Z,20.63
2017-08-19T19:06:54.792Z,20.48
2017-08-19T19:11:57.774Z,20.51
2017-08-19T19:16:59.921Z,20.47
2017-08-19T19:22:01.983Z,20.33
2017-08-19T19:27:04.151Z,20.30
2017-08-19T19:32:06.198Z,20.26
2017-08-19T19:37:08.184Z,20.20
2017-08-19T19:42:10.342Z,20.05
2017-08-19T19:47:12.521Z,19.96
2017-08-19T19:52:14.495Z,19.82
2017-08-19T19:57:17.644Z,19.62
2017-08-19T20:02:21.049Z,19.34
2017-08-19T20:07:24.380Z,19.23
2017-08-19T20:12:27.588Z,19.09
2017-08-19T20:17:30.817Z,18.91
2017-08-19T20:22:34.119Z,18.83
2017-08-19T20:27:37.448Z,18.73
2017-08-19T20:32:40.990Z,18.59
2017-08-19T20:37:43.092Z,18.51
2017-08-19T20:42:46.112Z,18.46
2017-08-19T20:47:48.614Z,18.30
2017-08-19T20:52:50.866Z,18.27
2017-08-19T20:57:55.412Z,18.13
2017-08-19T21:02:57.574Z,18.08
2017-08-19T21:07:59.762Z,18.10
2017-08-19T21:13:01.890Z,18.03
2017-08-19T21:18:05.608Z,17.99
2017-08-19T21:23:07.889Z,17.93
2017-08-19T21:28:09.960Z,17.95
2017-08-19T21:33:12.004Z,17.96
2017-08-19T21:38:14.207Z,17.90
2017-08-19T21:43:16.474Z,17.84
2017-08-19T21:48:18.612Z,17.81
2017-08-19T21:53:20.661Z,17.79
2017-08-19T21:58:22.704Z,17.78
2017-08-19T22:03:24.640Z,17.69
2017-08-19T22:08:26.633Z,17.74
2017-08-19T22:13:28.789Z,17.75
2017-08-19T22:18:30.748Z,17.67
2017-08-19T22:23:32.704Z,17.64
2017-08-19T22:28:34.664Z,17.55
2017-08-19T22:33:36.632Z,17.59
2017-08-19T22:38:38.584Z,17.60
2017-08-19T22:43:40.552Z,17.60
2017-08-19T22:48:42.540Z,17.52
2017-08-19T22:53:44.492Z,17.54
2017-08-19T22:58:46.538Z,17.52
2017-08-19T23:03:48.592Z,17.53
2017-08-19T23:08:50.601Z,17.45
2017-08-19T23:13:52.586Z,17.46
2017-08-19T23:18:54.560Z,17.46
2017-08-19T23:23:56.551Z,17.39
2017-08-19T23:28:58.540Z,17.38
2017-08-19T23:34:00.542Z,17.29
2017-08-19T23:39:02.637Z,17.29
2017-08-19T23:44:04.609Z,17.25
2017-08-19T23:49:06.524Z,17.21
2017-08-19T23:54:08.471Z,17.13
2017-08-19T23:59:10.475Z,17.18
